Time;durP1;ratioP1;P1;durP2;ratioP2;P2;SDS_P1;SDS_P2;PMS_P1;PMS_P2;Temp;Humidity;BMP_temperature;BMP_pressure;BME280_temperature;BME280_humidity;BME280_pressure;Samples;Min_cycle;Max_cycle;Signal;HPM_P1;HPM_P2
2021/03/19 00:00:34;;;;;;;79.97;41.43;;;-3.80;1.00;;;;;;4859800;28;20959;-89
2021/03/19 00:02:57;;;;;;;78.37;44.17;;;-3.90;1.00;;;;;;4860548;28;20627;-90
2021/03/19 00:05:22;;;;;;;84.50;46.13;;;-3.90;1.00;;;;;;4876499;28;20638;-90
2021/03/19 00:07:46;;;;;;;98.97;50.63;;;-4.00;1.00;;;;;;4859517;28;20600;-90
2021/03/19 00:10:09;;;;;;;100.20;51.10;;;-4.10;1.00;;;;;;4841815;28;21015;-90
2021/03/19 00:12:31;;;;;;;101.97;50.83;;;-4.20;1.00;;;;;;4858464;28;20686;-90
2021/03/19 00:14:53;;;;;;;114.00;55.97;;;-4.20;1.00;;;;;;4859920;28;20627;-89
2021/03/19 00:17:16;;;;;;;112.10;56.57;;;-4.20;1.00;;;;;;4877246;28;20693;-90
2021/03/19 00:19:39;;;;;;;108.80;56.27;;;-4.30;1.00;;;;;;4876712;28;20618;-89
2021/03/19 00:22:01;;;;;;;108.67;53.67;;;-4.30;1.00;;;;;;4877064;28;20629;-87
2021/03/19 00:24:23;;;;;;;102.50;51.57;;;-4.30;1.00;;;;;;4889064;28;20603;-85
2021/03/19 00:26:45;;;;;;;104.13;51.43;;;-4.40;1.00;;;;;;4877825;28;20618;-90
2021/03/19 00:29:07;;;;;;;103.87;52.50;;;-4.40;2.90;;;;;;4878136;28;20598;-89
2021/03/19 00:31:29;;;;;;;99.80;52.07;;;-4.40;4.30;;;;;;4877817;28;20736;-86
2021/03/19 00:33:51;;;;;;;106.80;54.77;;;-4.50;6.10;;;;;;4878843;28;20619;-88
2021/03/19 00:36:14;;;;;;;110.67;57.33;;;-4.50;10.20;;;;;;4875866;28;20614;-88
2021/03/19 00:38:36;;;;;;;116.07;59.67;;;-4.50;16.70;;;;;;4859909;28;20697;-90
2021/03/19 00:40:58;;;;;;;115.17;62.57;;;-4.50;22.30;;;;;;4859207;28;20616;-89
2021/03/19 00:43:21;;;;;;;127.17;63.60;;;-4.40;26.90;;;;;;4842892;28;21189;-90
2021/03/19 00:45:44;;;;;;;138.43;75.77;;;-4.40;31.10;;;;;;4859752;28;20643;-89
2021/03/19 00:48:07;;;;;;;145.70;80.00;;;-4.40;37.70;;;;;;4842947;28;20678;-90
2021/03/19 00:50:32;;;;;;;135.87;74.40;;;-4.40;44.90;;;;;;4859339;28;20697;-90
2021/03/19 00:52:55;;;;;;;130.53;73.07;;;-4.40;50.90;;;;;;4859608;28;20650;-89
2021/03/19 00:55:17;;;;;;;138.13;73.17;;;-4.40;54.20;;;;;;4858578;28;20724;-88
2021/03/19 00:57:40;;;;;;;133.03;72.87;;;-4.40;56.90;;;;;;4877072;28;20582;-89
2021/03/19 01:00:03;;;;;;;154.03;82.93;;;-4.40;59.80;;;;;;4859379;28;20627;-83
2021/03/19 01:02:25;;;;;;;147.53;83.80;;;-4.40;64.50;;;;;;4840694;28;21019;-89
2021/03/19 01:04:48;;;;;;;143.60;78.37;;;-4.40;70.60;;;;;;4859145;28;20983;-89
2021/03/19 01:07:11;;;;;;;144.27;79.17;;;-4.40;76.50;;;;;;4876731;28;20951;-89
2021/03/19 01:09:35;;;;;;;143.80;80.40;;;-4.30;81.70;;;;;;4859424;28;20649;-88
2021/03/19 01:11:57;;;;;;;135.00;74.47;;;-4.30;86.10;;;;;;4865121;28;20619;-89
2021/03/19 01:14:19;;;;;;;134.40;71.77;;;-4.40;89.40;;;;;;4896869;28;20593;-88
2021/03/19 01:16:41;;;;;;;131.13;71.47;;;-4.40;90.90;;;;;;4878022;28;20756;-89
2021/03/19 01:19:04;;;;;;;135.90;75.43;;;-4.40;91.80;;;;;;4871035;28;20603;-88
2021/03/19 01:21:26;;;;;;;127.57;71.10;;;-4.50;92.60;;;;;;4899670;28;20947;-89
2021/03/19 01:23:48;;;;;;;133.83;74.03;;;-4.50;93.30;;;;;;4900056;28;21222;-89
2021/03/19 01:26:12;;;;;;;130.57;73.57;;;-4.50;94.10;;;;;;4880765;28;20618;-88
2021/03/19 01:28:34;;;;;;;157.53;86.90;;;-4.50;94.90;;;;;;4899665;28;21091;-89
2021/03/19 01:30:56;;;;;;;145.40;79.30;;;-4.50;95.70;;;;;;4881659;28;20627;-87
2021/03/19 01:33:19;;;;;;;148.20;78.97;;;-4.50;96.50;;;;;;4882058;28;20614;-87
2021/03/19 01:35:42;;;;;;;172.53;93.77;;;-4.50;97.10;;;;;;4881321;28;20752;-91
2021/03/19 01:38:04;;;;;;;174.40;95.80;;;-4.50;98.30;;;;;;4881850;28;21511;-90
2021/03/19 01:40:32;;;;;;;164.53;90.87;;;-4.40;98.80;;;;;;4885057;28;20602;-90
2021/03/19 01:42:57;;;;;;;143.20;80.37;;;-4.40;99.60;;;;;;4862579;28;20689;-91
2021/03/19 01:45:52;;;;;;;147.47;81.37;;;-4.30;99.90;;;;;;4844758;28;20673;-90
2021/03/19 01:48:51;;;;;;;143.70;81.57;;;-4.30;99.90;;;;;;4878444;28;20618;-88
2021/03/19 01:51:51;;;;;;;133.27;72.57;;;-4.20;99.90;;;;;;4878651;28;20676;-89
2021/03/19 01:54:50;;;;;;;132.90;74.07;;;-4.20;99.90;;;;;;4862332;28;20615;-89
2021/03/19 01:57:50;;;;;;;132.90;71.87;;;-4.20;99.90;;;;;;4861950;28;20628;-90
2021/03/19 02:00:45;;;;;;;127.90;69.23;;;-4.20;99.90;;;;;;4879325;28;20602;-88
2021/03/19 02:03:44;;;;;;;138.00;79.23;;;-4.20;99.90;;;;;;4837014;28;20614;-88
2021/03/19 02:06:44;;;;;;;154.20;84.13;;;-4.10;99.90;;;;;;4879430;28;20582;-90
2021/03/19 02:09:43;;;;;;;130.40;74.93;;;-4.00;99.90;;;;;;4861611;28;20612;-89
2021/03/19 02:12:42;;;;;;;122.53;65.73;;;-3.90;99.90;;;;;;4879963;28;20599;-90
2021/03/19 02:15:42;;;;;;;120.87;65.43;;;-3.80;99.90;;;;;;4861413;28;20628;-89
2021/03/19 02:18:41;;;;;;;126.70;74.97;;;-3.60;99.90;;;;;;4862396;28;20588;-88
2021/03/19 02:21:46;;;;;;;126.17;72.90;;;-3.60;99.90;;;;;;4844754;28;20617;-90
2021/03/19 02:24:46;;;;;;;127.00;71.33;;;-3.50;99.90;;;;;;4806342;28;20676;-91
2021/03/19 02:27:45;;;;;;;133.37;74.20;;;-3.40;99.90;;;;;;4882076;28;20626;-90
2021/03/19 02:30:45;;;;;;;149.77;85.47;;;-3.40;99.90;;;;;;4879450;28;21127;-91
2021/03/19 02:33:08;;;;;;;155.17;89.47;;;-3.30;99.90;;;;;;4860996;28;20619;-91
2021/03/19 02:35:30;;;;;;;158.93;91.30;;;-3.30;99.90;;;;;;4846327;28;20706;-91
2021/03/19 02:37:52;;;;;;;149.53;90.87;;;-3.20;99.90;;;;;;4881022;28;20642;-88
2021/03/19 02:40:17;;;;;;;147.07;89.93;;;-3.30;99.90;;;;;;4898649;28;20621;-91
2021/03/19 02:42:39;;;;;;;145.20;87.17;;;-3.30;99.90;;;;;;4880052;28;21229;-90
2021/03/19 02:45:01;;;;;;;139.03;79.63;;;-3.20;99.90;;;;;;4881337;28;20603;-90
2021/03/19 02:47:23;;;;;;;128.33;74.17;;;-3.30;99.90;;;;;;4879653;28;20664;-90
2021/03/19 02:49:47;;;;;;;133.30;77.70;;;-3.30;99.90;;;;;;4897988;28;20635;-87
2021/03/19 02:52:09;;;;;;;134.10;75.93;;;-3.20;99.90;;;;;;4880045;28;20639;-89
2021/03/19 02:54:32;;;;;;;121.97;69.10;;;-3.20;99.90;;;;;;4879623;28;20611;-90
2021/03/19 02:56:54;;;;;;;120.27;69.57;;;-3.30;99.90;;;;;;4879531;28;20697;-90
2021/03/19 02:59:17;;;;;;;138.93;80.03;;;-3.30;99.90;;;;;;4880050;28;20611;-90
2021/03/19 03:01:39;;;;;;;155.83;85.60;;;-3.30;99.90;;;;;;4896493;28;20590;-89
2021/03/19 03:04:02;;;;;;;142.40;84.27;;;-3.30;98.60;;;;;;4879892;28;20823;-83
2021/03/19 03:06:40;;;;;;;135.87;76.00;;;-3.40;96.70;;;;;;4879838;28;21273;-90
2021/03/19 03:09:05;;;;;;;135.87;67.57;;;-3.40;94.90;;;;;;4878966;28;20669;-83
2021/03/19 03:11:27;;;;;;;142.30;72.23;;;-3.50;93.30;;;;;;4879969;28;20711;-90
2021/03/19 03:13:49;;;;;;;129.87;70.10;;;-3.50;92.60;;;;;;4898395;28;20578;-90
2021/03/19 03:16:11;;;;;;;151.93;64.77;;;-3.60;92.60;;;;;;4879593;28;20654;-91
2021/03/19 03:18:34;;;;;;;163.87;61.70;;;-3.50;93.90;;;;;;4879472;28;20665;-89
2021/03/19 03:20:58;;;;;;;146.97;56.17;;;-3.50;95.70;;;;;;4894805;28;20731;-91
2021/03/19 03:23:24;;;;;;;170.20;72.50;;;-3.50;98.60;;;;;;4863356;28;20611;-91
2021/03/19 03:25:47;;;;;;;146.20;76.83;;;-3.30;99.90;;;;;;4862548;28;20646;-91
2021/03/19 03:28:10;;;;;;;118.60;64.83;;;-3.20;99.90;;;;;;4897494;28;20623;-89
2021/03/19 03:30:36;;;;;;;89.37;46.07;;;-3.10;99.90;;;;;;4879545;28;20641;-91
2021/03/19 03:32:58;;;;;;;92.17;47.00;;;-3.00;99.90;;;;;;4879862;28;20623;-90
2021/03/19 03:35:22;;;;;;;80.97;45.30;;;-2.90;99.90;;;;;;4829736;28;20667;-88
2021/03/19 03:37:44;;;;;;;88.63;44.67;;;-2.90;99.90;;;;;;4879895;28;20700;-91
2021/03/19 03:40:11;;;;;;;84.83;43.50;;;-2.80;99.90;;;;;;4884567;28;20665;-91
2021/03/19 03:42:33;;;;;;;87.80;44.73;;;-2.80;99.90;;;;;;4844134;28;20710;-91
2021/03/19 03:44:56;;;;;;;86.63;44.70;;;-2.70;99.90;;;;;;4843674;28;21190;-92
2021/03/19 03:47:18;;;;;;;86.17;45.27;;;-2.70;99.90;;;;;;4843247;28;20624;-91
2021/03/19 03:49:40;;;;;;;90.50;44.07;;;-2.60;99.90;;;;;;4860031;28;21003;-93
2021/03/19 03:52:02;;;;;;;85.23;45.43;;;-2.50;99.90;;;;;;4860683;28;20639;-82
2021/03/19 03:54:24;;;;;;;90.80;44.07;;;-2.50;99.90;;;;;;4860447;28;20638;-91
2021/03/19 03:56:47;;;;;;;86.40;42.00;;;-2.50;98.50;;;;;;4887652;28;21210;-92
2021/03/19 03:59:10;;;;;;;78.73;40.77;;;-2.50;95.10;;;;;;4849563;28;20607;-90
2021/03/19 04:01:33;;;;;;;94.67;37.43;;;-2.50;93.60;;;;;;4841532;28;21256;-88
2021/03/19 04:03:55;;;;;;;75.10;37.30;;;-2.50;92.80;;;;;;4860005;28;20620;-89
2021/03/19 04:06:18;;;;;;;75.57;39.13;;;-2.40;91.20;;;;;;4860117;28;20660;-90
2021/03/19 04:08:40;;;;;;;83.80;41.53;;;-2.40;91.40;;;;;;4877072;28;21139;-91
2021/03/19 04:11:07;;;;;;;91.03;39.40;;;-2.40;92.30;;;;;;4859517;28;20654;-86
2021/03/19 04:13:31;;;;;;;84.70;42.20;;;-2.30;92.60;;;;;;4843124;28;20625;-90
2021/03/19 04:15:53;;;;;;;81.70;43.03;;;-2.30;92.40;;;;;;4877517;28;20664;-91
2021/03/19 04:18:16;;;;;;;80.17;38.97;;;-2.30;92.30;;;;;;4860316;28;20642;-92
2021/03/19 04:20:39;;;;;;;79.53;38.10;;;-2.30;92.30;;;;;;4858551;28;20706;-87
2021/03/19 04:23:02;;;;;;;83.33;41.43;;;-2.30;92.60;;;;;;4860584;28;20605;-88
2021/03/19 04:25:24;;;;;;;73.43;38.53;;;-2.30;93.00;;;;;;4862799;28;20623;-90
2021/03/19 04:27:49;;;;;;;66.23;34.53;;;-2.20;93.00;;;;;;4860204;28;20725;-87
2021/03/19 04:30:18;;;;;;;74.63;38.80;;;-2.20;92.30;;;;;;4876999;28;20617;-86
2021/03/19 04:32:40;;;;;;;66.90;38.03;;;-2.20;90.40;;;;;;4842896;28;20640;-84
2021/03/19 04:35:02;;;;;;;73.30;39.83;;;-2.20;85.80;;;;;;4877848;28;21555;-76
2021/03/19 04:37:24;;;;;;;71.47;40.03;;;-2.30;83.20;;;;;;4866187;28;20666;-89
2021/03/19 04:39:49;;;;;;;75.30;40.97;;;-2.30;82.00;;;;;;4887858;28;21252;-88
2021/03/19 04:42:12;;;;;;;72.67;39.17;;;-2.30;81.30;;;;;;4877247;28;20660;-88
2021/03/19 04:44:38;;;;;;;76.33;41.33;;;-2.40;79.40;;;;;;4877950;28;21189;-79
2021/03/19 04:47:01;;;;;;;75.40;42.20;;;-2.30;78.20;;;;;;4859797;28;20677;-89
2021/03/19 04:49:24;;;;;;;90.17;47.50;;;-2.40;76.90;;;;;;4859104;28;20658;-91
2021/03/19 04:51:47;;;;;;;84.43;45.23;;;-2.50;75.50;;;;;;4861739;28;20689;-88
2021/03/19 04:54:10;;;;;;;85.97;44.87;;;-2.50;75.90;;;;;;4881202;28;20724;-91
2021/03/19 04:56:32;;;;;;;83.63;46.57;;;-2.40;74.50;;;;;;4845932;28;20651;-91
2021/03/19 04:58:54;;;;;;;82.60;45.20;;;-2.40;75.30;;;;;;4880394;28;20602;-89
2021/03/19 05:01:17;;;;;;;82.50;45.43;;;-2.40;76.90;;;;;;4861656;28;20622;-92
2021/03/19 05:03:40;;;;;;;82.23;46.50;;;-2.30;78.00;;;;;;4845415;28;20616;-90
2021/03/19 05:06:03;;;;;;;80.97;43.83;;;-2.30;77.40;;;;;;4880617;28;20598;-88
2021/03/19 05:08:25;;;;;;;75.67;42.37;;;-2.30;76.00;;;;;;4880913;28;20670;-90
2021/03/19 05:10:47;;;;;;;79.90;43.17;;;-2.30;74.70;;;;;;4863213;28;20608;-89
2021/03/19 05:13:10;;;;;;;75.13;44.50;;;-2.20;71.30;;;;;;4864788;28;21091;-90
2021/03/19 05:15:33;;;;;;;87.87;46.13;;;-2.20;68.10;;;;;;4899226;28;20629;-89
2021/03/19 05:17:55;;;;;;;82.50;44.70;;;-2.20;67.20;;;;;;4852733;28;20656;-90
2021/03/19 05:20:19;;;;;;;80.03;44.13;;;-2.20;67.00;;;;;;4862819;28;20657;-89
2021/03/19 05:22:42;;;;;;;102.17;47.20;;;-2.20;67.60;;;;;;4862502;28;20623;-87
2021/03/19 05:25:07;;;;;;;91.50;47.10;;;-2.10;65.70;;;;;;4879904;28;20652;-90
2021/03/19 05:27:29;;;;;;;98.27;47.97;;;-2.00;59.60;;;;;;4852407;28;20619;-89
2021/03/19 05:29:52;;;;;;;89.47;45.57;;;-2.00;57.30;;;;;;4865301;28;21272;-88
2021/03/19 05:32:14;;;;;;;85.57;44.17;;;-2.00;54.10;;;;;;4899712;28;21134;-91
2021/03/19 05:34:36;;;;;;;82.43;44.87;;;-2.00;51.60;;;;;;4881284;28;20610;-87
2021/03/19 05:36:59;;;;;;;79.50;42.73;;;-2.00;50.80;;;;;;4881087;28;20711;-91
2021/03/19 05:39:21;;;;;;;77.37;42.20;;;-2.00;52.10;;;;;;4859747;28;20691;-88
2021/03/19 05:41:45;;;;;;;75.47;41.43;;;-1.90;51.90;;;;;;4845828;28;21000;-88
2021/03/19 05:44:12;;;;;;;77.73;42.27;;;-1.90;50.30;;;;;;4846155;28;21236;-89
2021/03/19 05:46:36;;;;;;;77.70;42.87;;;-1.90;49.00;;;;;;4879092;28;20668;-90
2021/03/19 05:49:02;;;;;;;74.80;41.13;;;-1.80;49.20;;;;;;4862809;28;20737;-75
2021/03/19 05:51:37;;;;;;;73.97;40.43;;;-1.70;50.20;;;;;;4862244;28;20651;-87
2021/03/19 05:54:06;;;;;;;73.67;38.63;;;-1.70;51.10;;;;;;4880003;28;20605;-88
2021/03/19 05:56:30;;;;;;;71.70;39.83;;;-1.60;50.90;;;;;;4860478;28;20724;-86
2021/03/19 05:58:53;;;;;;;62.67;36.47;;;-1.60;45.60;;;;;;4845243;28;20608;-88
2021/03/19 06:01:15;;;;;;;72.03;39.77;;;-1.50;43.30;;;;;;4844289;28;20649;-90
2021/03/19 06:03:37;;;;;;;68.43;37.40;;;-1.50;45.60;;;;;;4877779;28;20672;-86
2021/03/19 06:06:01;;;;;;;65.10;36.27;;;-1.40;49.30;;;;;;4844643;28;20632;-88
2021/03/19 06:08:29;;;;;;;68.97;36.63;;;-1.30;48.20;;;;;;4895389;28;21192;-88
2021/03/19 06:11:07;;;;;;;67.97;36.30;;;-1.10;47.40;;;;;;4845943;28;21054;-89
2021/03/19 06:13:41;;;;;;;67.87;36.93;;;-1.10;44.10;;;;;;4895282;28;20637;-88
2021/03/19 06:16:20;;;;;;;68.47;37.80;;;-1.10;44.90;;;;;;4877914;28;20641;-88
2021/03/19 06:18:45;;;;;;;75.37;40.23;;;-0.90;35.80;;;;;;4879797;28;21170;-75
2021/03/19 06:21:13;;;;;;;71.90;40.63;;;-0.80;33.50;;;;;;4861261;28;20627;-89
2021/03/19 06:23:37;;;;;;;74.07;41.30;;;-0.80;38.50;;;;;;4845490;28;20670;-89
2021/03/19 06:26:17;;;;;;;64.53;37.03;;;-0.60;42.90;;;;;;4844502;28;20571;-87
2021/03/19 06:28:40;;;;;;;65.57;36.97;;;-0.50;43.60;;;;;;4877593;28;20707;-86
2021/03/19 06:31:19;;;;;;;63.47;36.67;;;-0.30;39.90;;;;;;4862781;28;21238;-84
2021/03/19 06:33:41;;;;;;;57.20;35.57;;;-0.10;28.40;;;;;;4876234;28;20780;-88
2021/03/19 06:36:11;;;;;;;61.63;35.00;;;0.00;23.90;;;;;;4863030;28;20671;-88
2021/03/19 06:38:36;;;;;;;56.07;34.00;;;0.20;19.60;;;;;;4886650;28;20671;-88
2021/03/19 06:41:24;;;;;;;56.53;34.17;;;0.30;13.10;;;;;;4842961;28;20631;-86
2021/03/19 06:43:47;;;;;;;55.63;34.07;;;0.40;4.60;;;;;;4879516;28;20555;-89
2021/03/19 06:46:13;;;;;;;59.83;35.37;;;0.50;1.00;;;;;;4834608;28;20194;-85
2021/03/19 06:48:38;;;;;;;53.77;32.60;;;0.60;1.00;;;;;;4878659;28;20185;-89
2021/03/19 06:51:00;;;;;;;47.40;28.57;;;0.80;1.00;;;;;;4876668;28;20283;-85
2021/03/19 06:53:24;;;;;;;38.57;25.70;;;0.90;1.00;;;;;;4877611;28;20289;-84
2021/03/19 06:55:50;;;;;;;40.07;26.57;;;1.10;1.00;;;;;;4877465;28;20224;-90
2021/03/19 06:58:14;;;;;;;39.73;24.57;;;1.30;1.00;;;;;;4863033;28;20218;-85
2021/03/19 07:00:40;;;;;;;41.97;26.77;;;1.40;1.00;;;;;;4877473;28;20606;-90
2021/03/19 07:03:18;;;;;;;37.10;23.97;;;1.50;49.40;;;;;;4876840;28;20945;-82
2021/03/19 07:05:50;;;;;;;36.97;24.93;;;1.50;1.00;;;;;;4879210;28;20311;-90
2021/03/19 07:08:30;;;;;;;41.40;27.13;;;1.60;1.00;;;;;;4879159;28;20575;-84
2021/03/19 07:11:26;;;;;;;40.23;27.53;;;1.70;1.00;;;;;;4878733;28;20169;-89
2021/03/19 07:14:03;;;;;;;43.10;27.73;;;1.80;1.00;;;;;;4833711;28;20198;-88
2021/03/19 07:16:29;;;;;;;35.87;24.40;;;2.10;1.00;;;;;;4860474;28;20202;-89
2021/03/19 07:19:11;;;;;;;38.67;24.50;;;2.10;99.90;;;;;;4861870;28;20193;-90
2021/03/19 07:21:58;;;;;;;39.10;24.33;;;2.20;99.90;;;;;;4855927;28;20197;-89
2021/03/19 07:24:36;;;;;;;40.87;26.40;;;2.30;99.90;;;;;;4870851;28;20202;-85
2021/03/19 07:27:02;;;;;;;34.37;23.13;;;2.30;99.90;;;;;;4877178;28;20223;-87
2021/03/19 07:29:51;;;;;;;32.50;21.53;;;2.40;99.90;;;;;;4895594;28;20758;-84
2021/03/19 07:32:52;;;;;;;32.20;22.27;;;2.50;99.90;;;;;;4877808;28;20205;-80
2021/03/19 07:35:34;;;;;;;33.47;22.13;;;2.70;99.90;;;;;;4869436;28;20192;-83
2021/03/19 07:38:27;;;;;;;27.73;19.77;;;2.80;99.90;;;;;;4879471;28;20266;-83
2021/03/19 07:41:04;;;;;;;30.53;20.53;;;2.90;50.70;;;;;;4885906;28;20242;-87
2021/03/19 07:44:04;;;;;;;30.37;21.83;;;3.00;1.00;;;;;;4856191;28;20194;-89
2021/03/19 07:46:34;;;;;;;30.43;21.33;;;2.90;1.00;;;;;;4799285;28;20665;-88
2021/03/19 07:49:36;;;;;;;29.87;20.23;;;2.80;1.00;;;;;;4861428;28;20216;-87
2021/03/19 07:52:11;;;;;;;30.93;20.93;;;2.90;1.00;;;;;;4815611;28;20557;-86
2021/03/19 07:54:44;;;;;;;29.40;21.10;;;2.90;1.00;;;;;;4878405;28;20251;-86
2021/03/19 07:57:16;;;;;;;29.50;21.50;;;2.90;1.00;;;;;;4877459;28;20213;-78
2021/03/19 07:59:48;;;;;;;27.27;19.63;;;3.00;1.00;;;;;;4893745;28;20181;-84
2021/03/19 08:02:59;;;;;;;29.80;20.67;;;3.10;1.00;;;;;;4857433;28;20671;-86
2021/03/19 08:05:25;;;;;;;34.40;20.97;;;3.30;1.00;;;;;;4812082;28;20187;-83
2021/03/19 08:07:53;;;;;;;31.33;21.27;;;3.50;1.00;;;;;;4852404;28;20292;-87
2021/03/19 08:10:23;;;;;;;28.97;20.27;;;3.80;1.00;;;;;;4842245;28;20242;-81
2021/03/19 08:12:51;;;;;;;27.93;20.03;;;4.10;1.00;;;;;;4876853;28;20728;-87
2021/03/19 08:15:27;;;;;;;26.67;19.43;;;4.30;1.00;;;;;;4895526;28;20235;-81
2021/03/19 08:17:58;;;;;;;29.47;22.20;;;4.50;1.00;;;;;;4845947;28;20221;-84
2021/03/19 08:20:56;;;;;;;28.67;20.87;;;4.60;1.00;;;;;;4869837;28;20214;-85
2021/03/19 08:23:29;;;;;;;25.30;18.70;;;5.00;1.00;;;;;;4864772;28;20219;-86
2021/03/19 08:25:52;;;;;;;26.87;19.47;;;5.30;1.00;;;;;;4872838;28;20543;-85
2021/03/19 08:28:24;;;;;;;26.47;20.30;;;5.30;1.00;;;;;;4889430;28;20182;-81
2021/03/19 08:30:54;;;;;;;24.07;18.67;;;5.30;1.00;;;;;;4874174;28;20736;-84
2021/03/19 08:33:28;;;;;;;24.23;16.87;;;5.60;1.00;;;;;;4878847;28;20215;-82
2021/03/19 08:35:59;;;;;;;21.37;16.40;;;5.90;1.00;;;;;;4879203;28;20178;-83
2021/03/19 08:38:27;;;;;;;21.27;16.20;;;6.10;1.00;;;;;;4848629;28;20292;-84
2021/03/19 08:40:56;;;;;;;18.77;15.53;;;6.30;1.00;;;;;;4878394;28;20307;-84
2021/03/19 08:43:24;;;;;;;19.30;15.40;;;6.40;1.00;;;;;;4879554;28;20197;-81
2021/03/19 08:45:46;;;;;;;22.00;15.40;;;6.60;1.00;;;;;;4861213;28;20671;-83
2021/03/19 08:48:15;;;;;;;20.23;16.37;;;6.80;1.00;;;;;;4865652;28;20244;-82
2021/03/19 08:50:41;;;;;;;21.00;16.03;;;6.80;1.00;;;;;;4859550;28;20609;-82
2021/03/19 08:53:13;;;;;;;20.20;15.73;;;6.80;1.00;;;;;;4879201;28;20227;-80
2021/03/19 08:55:35;;;;;;;20.43;15.73;;;7.00;1.00;;;;;;4876128;28;20243;-82
2021/03/19 08:58:18;;;;;;;21.83;15.87;;;7.20;1.00;;;;;;4879223;28;20209;-82
2021/03/19 09:01:01;;;;;;;21.93;16.13;;;7.00;1.00;;;;;;4878100;28;20641;-81
2021/03/19 09:03:54;;;;;;;19.93;14.97;;;7.20;1.00;;;;;;4879697;28;20232;-83
2021/03/19 09:06:19;;;;;;;20.73;15.43;;;7.50;1.00;;;;;;4834659;28;20193;-82
2021/03/19 09:09:13;;;;;;;16.70;13.80;;;8.10;1.00;;;;;;4895963;28;20185;-80
2021/03/19 09:12:00;;;;;;;16.63;13.57;;;8.60;1.00;;;;;;4888913;28;20239;-82
2021/03/19 09:14:33;;;;;;;13.07;11.13;;;9.00;1.00;;;;;;4878355;28;20181;-81
2021/03/19 09:16:58;;;;;;;13.83;11.67;;;9.40;1.00;;;;;;4886804;28;20204;-83
2021/03/19 09:20:06;;;;;;;12.40;10.13;;;10.20;1.00;;;;;;4862724;28;20215;-81
2021/03/19 09:22:36;;;;;;;7.53;6.63;;;11.00;99.90;;;;;;4864318;28;20205;-79
2021/03/19 09:25:45;;;;;;;8.00;7.13;;;11.10;99.90;;;;;;4897103;28;20642;-83
2021/03/19 09:28:28;;;;;;;9.50;8.07;;;11.30;99.90;;;;;;4879725;28;20189;-82
2021/03/19 09:30:55;;;;;;;8.13;6.67;;;11.90;99.90;;;;;;4874313;28;20749;-78
2021/03/19 09:34:09;;;;;;;6.47;5.83;;;12.10;99.90;;;;;;4869363;28;20248;-80
2021/03/19 09:36:55;;;;;;;6.57;6.00;;;12.10;99.90;;;;;;4876691;28;20169;-82
2021/03/19 09:39:51;;;;;;;5.50;5.00;;;12.80;99.90;;;;;;4881299;28;20263;-80
2021/03/19 09:42:38;;;;;;;3.90;3.60;;;14.30;99.90;;;;;;4865551;28;20276;-78
2021/03/19 09:45:33;;;;;;;2.67;2.47;;;16.20;99.90;;;;;;4894820;28;20193;-80
2021/03/19 09:48:23;;;;;;;1.53;1.43;;;17.00;99.90;;;;;;4891585;28;20228;-79
2021/03/19 09:50:53;;;;;;;1.03;1.03;;;17.70;99.90;;;;;;4873428;28;20648;-82
2021/03/19 09:53:28;;;;;;;0.97;0.97;;;17.80;99.90;;;;;;4869529;28;20656;-80
2021/03/19 09:55:51;;;;;;;1.07;1.07;;;17.50;99.90;;;;;;4859055;28;20256;-79
2021/03/19 09:58:21;;;;;;;1.10;1.03;;;16.80;99.90;;;;;;4877473;28;20213;-80
2021/03/19 10:00:47;;;;;;;1.20;1.20;;;15.80;99.90;;;;;;4880084;28;20250;-78
2021/03/19 10:03:11;;;;;;;1.57;1.47;;;14.90;99.90;;;;;;4862362;28;20236;-80
2021/03/19 10:05:37;;;;;;;1.60;1.50;;;13.90;99.90;;;;;;4867590;28;20206;-81
2021/03/19 10:08:01;;;;;;;2.03;1.83;;;12.80;99.90;;;;;;4868023;28;20190;-82
2021/03/19 10:10:28;;;;;;;2.63;2.30;;;11.80;99.90;;;;;;4885476;28;20189;-85
2021/03/19 10:12:51;;;;;;;3.23;3.00;;;10.80;99.90;;;;;;4895578;28;20188;-81
2021/03/19 10:15:18;;;;;;;3.00;2.80;;;10.10;99.90;;;;;;4877287;28;20231;-81
2021/03/19 10:17:48;;;;;;;3.17;2.97;;;9.50;99.90;;;;;;4876439;28;20311;-81
2021/03/19 10:20:21;;;;;;;3.70;3.40;;;9.10;99.90;;;;;;4877580;28;20538;-74
2021/03/19 10:22:45;;;;;;;3.40;3.17;;;8.60;99.90;;;;;;4877765;28;20208;-80
2021/03/19 10:25:25;;;;;;;3.77;3.47;;;8.20;99.90;;;;;;4887842;28;20184;-77
2021/03/19 10:27:50;;;;;;;3.67;3.37;;;7.70;99.90;;;;;;4863497;28;20276;-78
2021/03/19 10:30:18;;;;;;;4.27;3.87;;;7.20;99.90;;;;;;4893039;28;20240;-82
2021/03/19 10:32:40;;;;;;;5.27;4.40;;;6.60;99.90;;;;;;4896517;28;20210;-82
2021/03/19 10:35:09;;;;;;;4.23;3.90;;;6.20;99.90;;;;;;4896605;28;20193;-79
2021/03/19 10:37:38;;;;;;;4.90;4.40;;;5.90;99.90;;;;;;4861667;28;20256;-79
2021/03/19 10:40:06;;;;;;;5.37;4.87;;;5.70;99.90;;;;;;4877092;28;20186;-78
2021/03/19 10:42:33;;;;;;;4.67;4.10;;;5.60;99.90;;;;;;4867244;28;20243;-79
2021/03/19 10:45:09;;;;;;;4.50;4.03;;;5.60;99.90;;;;;;4865939;28;20197;-80
2021/03/19 10:47:36;;;;;;;4.30;3.90;;;5.80;99.90;;;;;;4860884;28;20201;-80
2021/03/19 10:50:00;;;;;;;5.00;4.53;;;6.10;99.90;;;;;;4875125;28;20193;-80
2021/03/19 10:52:30;;;;;;;4.73;4.33;;;6.50;99.90;;;;;;4873929;28;20190;-79
2021/03/19 10:54:59;;;;;;;7.10;5.00;;;7.10;99.90;;;;;;4867450;28;20177;-79
2021/03/19 10:57:24;;;;;;;5.23;4.27;;;7.90;99.90;;;;;;4875049;28;20263;-77
2021/03/19 10:59:49;;;;;;;4.77;4.20;;;9.10;99.90;;;;;;4879320;28;20197;-82
2021/03/19 11:02:21;;;;;;;3.33;3.03;;;10.80;99.90;;;;;;4874660;28;20685;-76
2021/03/19 11:04:45;;;;;;;2.93;2.73;;;12.70;99.90;;;;;;4879485;28;20238;-81
2021/03/19 11:07:34;;;;;;;2.60;2.40;;;14.90;99.90;;;;;;4858025;28;20269;-73
2021/03/19 11:10:16;;;;;;;1.17;1.13;;;17.40;99.90;;;;;;4859083;28;20193;-81
2021/03/19 11:12:43;;;;;;;0.60;0.60;;;19.40;99.90;;;;;;4873275;28;20573;-79
2021/03/19 11:15:09;;;;;;;0.33;0.33;;;21.70;99.90;;;;;;4881222;28;20235;-80
2021/03/19 11:17:33;;;;;;;0.30;0.30;;;22.80;99.90;;;;;;4846598;28;20277;-79
2021/03/19 11:19:58;;;;;;;0.20;0.20;;;23.10;99.90;;;;;;4858807;28;20665;-83
2021/03/19 11:22:20;;;;;;;0.20;0.20;;;22.90;99.90;;;;;;4858482;28;20232;-82
2021/03/19 11:24:42;;;;;;;0.20;0.20;;;22.70;99.90;;;;;;4877524;28;20196;-81
2021/03/19 11:27:21;;;;;;;0.20;0.20;;;22.80;99.90;;;;;;4841192;28;20620;-81
2021/03/19 11:29:43;;;;;;;0.20;0.20;;;23.50;99.90;;;;;;4877284;28;20195;-81
2021/03/19 11:32:31;;;;;;;0.30;0.30;;;24.10;99.90;;;;;;4892135;28;20193;-81
2021/03/19 11:34:57;;;;;;;0.20;0.20;;;24.80;99.90;;;;;;4866139;28;20202;-82
2021/03/19 11:37:35;;;;;;;0.20;0.20;;;23.70;99.90;;;;;;4876825;28;20189;-83
2021/03/19 11:39:59;;;;;;;0.27;0.27;;;22.10;99.90;;;;;;4876676;28;20246;-84
2021/03/19 11:42:24;;;;;;;0.30;0.30;;;20.10;99.90;;;;;;4841602;28;20192;-83
2021/03/19 11:44:49;;;;;;;0.30;0.30;;;18.30;99.90;;;;;;4879888;28;20227;-83
2021/03/19 11:47:18;;;;;;;0.23;0.23;;;16.80;99.90;;;;;;4876814;28;20227;-80
2021/03/19 11:49:40;;;;;;;0.53;0.53;;;15.50;99.90;;;;;;4859579;28;20276;-83
2021/03/19 11:52:04;;;;;;;0.67;0.67;;;14.10;99.90;;;;;;4858897;28;20255;-79
2021/03/19 11:54:26;;;;;;;1.07;1.07;;;13.10;99.90;;;;;;4889594;28;20189;-81
2021/03/19 11:56:48;;;;;;;1.63;1.53;;;12.40;99.90;;;;;;4865081;28;20223;-82
2021/03/19 11:59:12;;;;;;;1.73;1.63;;;11.80;99.90;;;;;;4878250;28;20247;-82
2021/03/19 12:01:34;;;;;;;1.80;1.70;;;11.40;99.90;;;;;;4875779;28;20188;-81
2021/03/19 12:03:57;;;;;;;1.87;1.77;;;10.70;99.90;;;;;;4875468;28;20328;-82
2021/03/19 12:06:22;;;;;;;2.40;2.20;;;10.60;99.90;;;;;;4856548;28;20193;-83
2021/03/19 12:08:45;;;;;;;2.60;2.40;;;10.70;99.90;;;;;;4841148;28;20222;-81
2021/03/19 12:11:09;;;;;;;1.63;1.53;;;12.80;99.90;;;;;;4893001;28;20218;-83
2021/03/19 12:13:32;;;;;;;0.70;0.70;;;16.50;99.90;;;;;;4875682;28;20220;-77
2021/03/19 12:15:54;;;;;;;0.40;0.40;;;20.20;99.90;;;;;;4892237;28;20234;-81
2021/03/19 12:18:17;;;;;;;0.27;0.27;;;22.70;99.90;;;;;;4894936;28;20548;-77
2021/03/19 12:20:39;;;;;;;0.20;0.20;;;23.10;99.90;;;;;;4868385;28;20748;-79
2021/03/19 12:23:02;;;;;;;0.20;0.20;;;22.50;99.90;;;;;;4876471;28;20209;-79
2021/03/19 12:25:27;;;;;;;0.20;0.20;;;21.30;99.90;;;;;;4874945;28;20317;-82
2021/03/19 12:27:49;;;;;;;0.20;0.20;;;19.90;99.90;;;;;;4875980;28;20220;-83
2021/03/19 12:30:12;;;;;;;0.20;0.20;;;18.40;99.90;;;;;;4842468;28;20198;-80
2021/03/19 12:32:34;;;;;;;0.30;0.30;;;17.10;99.90;;;;;;4857594;28;20206;-80
2021/03/19 12:34:56;;;;;;;0.33;0.33;;;16.00;99.90;;;;;;4872266;28;20342;-79
2021/03/19 12:37:18;;;;;;;0.47;0.47;;;14.90;99.90;;;;;;4893605;28;20188;-78
2021/03/19 12:39:40;;;;;;;0.50;0.50;;;13.90;99.90;;;;;;4867868;28;20282;-79
2021/03/19 12:42:04;;;;;;;0.70;0.70;;;12.90;99.90;;;;;;4857454;28;20281;-78
2021/03/19 12:44:26;;;;;;;0.87;0.87;;;12.10;99.90;;;;;;4856526;28;20684;-75